sensor_id;sensor_type;location;lat;lon;timestamp;P1;durP1;ratioP1;P2;durP2;ratioP2
40871;SDS011;26591;43.264;26.940;2022-08-19T00:01:15;8.45;;;7.03;;
40871;SDS011;26591;43.264;26.940;2022-08-19T00:03:41;7.45;;;6.63;;
40871;SDS011;26591;43.264;26.940;2022-08-19T00:06:06;11.10;;;6.82;;
40871;SDS011;26591;43.264;26.940;2022-08-19T00:08:32;9.32;;;6.68;;
40871;SDS011;26591;43.264;26.940;2022-08-19T00:10:58;10.55;;;7.45;;
40871;SDS011;26591;43.264;26.940;2022-08-19T00:13:23;7.93;;;6.43;;
40871;SDS011;26591;43.264;26.940;2022-08-19T00:15:49;11.10;;;6.50;;
40871;SDS011;26591;43.264;26.940;2022-08-19T00:18:14;7.55;;;6.05;;
40871;SDS011;26591;43.264;26.940;2022-08-19T00:20:39;8.77;;;6.57;;
40871;SDS011;26591;43.264;26.940;2022-08-19T00:23:05;7.20;;;6.15;;
40871;SDS011;26591;43.264;26.940;2022-08-19T00:25:31;8.00;;;7.13;;
40871;SDS011;26591;43.264;26.940;2022-08-19T00:27:58;11.27;;;6.70;;
40871;SDS011;26591;43.264;26.940;2022-08-19T00:30:25;8.75;;;6.35;;
40871;SDS011;26591;43.264;26.940;2022-08-19T00:32:52;8.93;;;5.93;;
40871;SDS011;26591;43.264;26.940;2022-08-19T00:35:20;7.95;;;6.85;;
40871;SDS011;26591;43.264;26.940;2022-08-19T00:37:47;8.32;;;7.15;;
40871;SDS011;26591;43.264;26.940;2022-08-19T00:40:13;8.20;;;7.15;;
40871;SDS011;26591;43.264;26.940;2022-08-19T00:42:40;9.82;;;6.43;;
40871;SDS011;26591;43.264;26.940;2022-08-19T00:45:17;9.38;;;6.55;;
40871;SDS011;26591;43.264;26.940;2022-08-19T00:47:45;10.35;;;6.57;;
40871;SDS011;26591;43.264;26.940;2022-08-19T00:50:11;8.73;;;6.65;;
40871;SDS011;26591;43.264;26.940;2022-08-19T00:52:40;9.52;;;6.60;;
40871;SDS011;26591;43.264;26.940;2022-08-19T00:55:11;10.00;;;6.50;;
40871;SDS011;26591;43.264;26.940;2022-08-19T00:57:42;9.00;;;6.60;;
40871;SDS011;26591;43.264;26.940;2022-08-19T01:00:14;9.35;;;7.00;;
40871;SDS011;26591;43.264;26.940;2022-08-19T01:02:42;8.07;;;7.18;;
40871;SDS011;26591;43.264;26.940;2022-08-19T01:05:09;10.23;;;6.43;;
40871;SDS011;26591;43.264;26.940;2022-08-19T01:07:40;10.30;;;6.75;;
40871;SDS011;26591;43.264;26.940;2022-08-19T01:10:09;12.93;;;8.27;;
40871;SDS011;26591;43.264;26.940;2022-08-19T01:12:38;15.02;;;10.25;;
40871;SDS011;26591;43.264;26.940;2022-08-19T01:15:08;14.73;;;9.65;;
40871;SDS011;26591;43.264;26.940;2022-08-19T01:17:36;14.80;;;10.20;;
40871;SDS011;26591;43.264;26.940;2022-08-19T01:20:05;15.85;;;9.95;;
40871;SDS011;26591;43.264;26.940;2022-08-19T01:22:35;13.43;;;9.70;;
40871;SDS011;26591;43.264;26.940;2022-08-19T01:25:09;9.13;;;8.27;;
40871;SDS011;26591;43.264;26.940;2022-08-19T01:27:47;9.77;;;7.82;;
40871;SDS011;26591;43.264;26.940;2022-08-19T01:30:16;10.65;;;8.07;;
40871;SDS011;26591;43.264;26.940;2022-08-19T01:32:45;10.50;;;7.68;;
40871;SDS011;26591;43.264;26.940;2022-08-19T01:35:11;11.52;;;7.90;;
40871;SDS011;26591;43.264;26.940;2022-08-19T01:37:50;7.88;;;7.07;;
40871;SDS011;26591;43.264;26.940;2022-08-19T01:40:22;11.75;;;7.10;;
40871;SDS011;26591;43.264;26.940;2022-08-19T01:42:50;15.18;;;9.43;;
40871;SDS011;26591;43.264;26.940;2022-08-19T01:45:17;16.38;;;10.70;;
40871;SDS011;26591;43.264;26.940;2022-08-19T01:47:43;16.63;;;10.35;;
40871;SDS011;26591;43.264;26.940;2022-08-19T01:50:09;16.38;;;10.52;;
40871;SDS011;26591;43.264;26.940;2022-08-19T01:52:36;14.52;;;10.32;;
40871;SDS011;26591;43.264;26.940;2022-08-19T01:55:04;11.70;;;9.90;;
40871;SDS011;26591;43.264;26.940;2022-08-19T01:57:31;20.63;;;11.68;;
40871;SDS011;26591;43.264;26.940;2022-08-19T01:59:57;15.73;;;10.65;;
40871;SDS011;26591;43.264;26.940;2022-08-19T02:02:26;21.52;;;11.50;;
40871;SDS011;26591;43.264;26.940;2022-08-19T02:04:52;17.50;;;11.80;;
40871;SDS011;26591;43.264;26.940;2022-08-19T02:07:21;15.07;;;10.82;;
40871;SDS011;26591;43.264;26.940;2022-08-19T02:09:47;19.20;;;11.70;;
40871;SDS011;26591;43.264;26.940;2022-08-19T02:12:13;18.23;;;12.20;;
40871;SDS011;26591;43.264;26.940;2022-08-19T02:14:39;18.23;;;12.73;;
40871;SDS011;26591;43.264;26.940;2022-08-19T02:17:05;20.00;;;12.35;;
40871;SDS011;26591;43.264;26.940;2022-08-19T02:19:31;20.58;;;11.70;;
40871;SDS011;26591;43.264;26.940;2022-08-19T02:21:58;15.25;;;11.32;;
40871;SDS011;26591;43.264;26.940;2022-08-19T02:24:24;14.48;;;12.15;;
40871;SDS011;26591;43.264;26.940;2022-08-19T02:26:51;12.70;;;11.40;;
40871;SDS011;26591;43.264;26.940;2022-08-19T02:29:17;17.20;;;11.75;;
40871;SDS011;26591;43.264;26.940;2022-08-19T02:31:43;17.60;;;12.60;;
40871;SDS011;26591;43.264;26.940;2022-08-19T02:34:08;17.27;;;10.55;;
40871;SDS011;26591;43.264;26.940;2022-08-19T02:36:34;19.20;;;12.10;;
40871;SDS011;26591;43.264;26.940;2022-08-19T02:39:00;17.77;;;11.10;;
40871;SDS011;26591;43.264;26.940;2022-08-19T02:41:29;21.90;;;13.18;;
40871;SDS011;26591;43.264;26.940;2022-08-19T02:43:56;19.05;;;12.07;;
40871;SDS011;26591;43.264;26.940;2022-08-19T02:46:25;27.27;;;12.70;;
40871;SDS011;26591;43.264;26.940;2022-08-19T02:48:53;18.02;;;11.75;;
40871;SDS011;26591;43.264;26.940;2022-08-19T02:51:24;13.80;;;12.25;;
40871;SDS011;26591;43.264;26.940;2022-08-19T02:53:53;15.25;;;11.85;;
40871;SDS011;26591;43.264;26.940;2022-08-19T02:56:21;16.13;;;12.55;;
40871;SDS011;26591;43.264;26.940;2022-08-19T02:58:47;16.88;;;11.30;;
40871;SDS011;26591;43.264;26.940;2022-08-19T03:01:24;14.65;;;11.45;;
40871;SDS011;26591;43.264;26.940;2022-08-19T03:03:52;18.50;;;12.27;;
40871;SDS011;26591;43.264;26.940;2022-08-19T03:06:19;15.32;;;12.00;;
40871;SDS011;26591;43.264;26.940;2022-08-19T03:08:46;18.80;;;11.55;;
40871;SDS011;26591;43.264;26.940;2022-08-19T03:11:18;21.25;;;11.80;;
40871;SDS011;26591;43.264;26.940;2022-08-19T03:13:56;17.15;;;11.77;;
40871;SDS011;26591;43.264;26.940;2022-08-19T03:16:24;20.08;;;12.65;;
40871;SDS011;26591;43.264;26.940;2022-08-19T03:18:52;20.58;;;13.13;;
40871;SDS011;26591;43.264;26.940;2022-08-19T03:21:20;21.20;;;12.70;;
40871;SDS011;26591;43.264;26.940;2022-08-19T03:23:49;26.05;;;13.25;;
40871;SDS011;26591;43.264;26.940;2022-08-19T03:26:14;22.13;;;13.02;;
40871;SDS011;26591;43.264;26.940;2022-08-19T03:28:41;23.35;;;12.88;;
40871;SDS011;26591;43.264;26.940;2022-08-19T03:31:08;19.75;;;12.80;;
40871;SDS011;26591;43.264;26.940;2022-08-19T03:33:38;20.90;;;12.55;;
40871;SDS011;26591;43.264;26.940;2022-08-19T03:36:24;16.48;;;12.25;;
40871;SDS011;26591;43.264;26.940;2022-08-19T03:38:53;18.95;;;11.20;;
40871;SDS011;26591;43.264;26.940;2022-08-19T03:41:24;22.00;;;10.88;;
40871;SDS011;26591;43.264;26.940;2022-08-19T03:43:52;16.70;;;11.07;;
40871;SDS011;26591;43.264;26.940;2022-08-19T03:46:24;18.77;;;11.60;;
40871;SDS011;26591;43.264;26.940;2022-08-19T03:48:53;21.42;;;11.25;;
40871;SDS011;26591;43.264;26.940;2022-08-19T03:51:21;21.00;;;10.77;;
40871;SDS011;26591;43.264;26.940;2022-08-19T03:53:58;19.27;;;11.18;;
40871;SDS011;26591;43.264;26.940;2022-08-19T03:56:26;19.08;;;11.45;;
40871;SDS011;26591;43.264;26.940;2022-08-19T03:58:56;20.35;;;12.90;;
40871;SDS011;26591;43.264;26.940;2022-08-19T04:01:23;22.50;;;14.60;;
40871;SDS011;26591;43.264;26.940;2022-08-19T04:03:53;23.80;;;13.27;;
40871;SDS011;26591;43.264;26.940;2022-08-19T04:06:28;20.00;;;13.73;;
40871;SDS011;26591;43.264;26.940;2022-08-19T04:08:57;20.10;;;13.55;;
40871;SDS011;26591;43.264;26.940;2022-08-19T04:11:28;19.83;;;11.52;;
40871;SDS011;26591;43.264;26.940;2022-08-19T04:13:55;20.60;;;13.50;;
40871;SDS011;26591;43.264;26.940;2022-08-19T04:16:25;25.35;;;13.27;;
40871;SDS011;26591;43.264;26.940;2022-08-19T04:18:55;18.67;;;12.88;;
40871;SDS011;26591;43.264;26.940;2022-08-19T04:21:26;23.08;;;12.85;;
40871;SDS011;26591;43.264;26.940;2022-08-19T04:23:52;26.33;;;12.75;;
40871;SDS011;26591;43.264;26.940;2022-08-19T04:26:23;21.88;;;13.63;;
40871;SDS011;26591;43.264;26.940;2022-08-19T04:28:50;22.70;;;13.98;;
40871;SDS011;26591;43.264;26.940;2022-08-19T04:31:20;25.20;;;13.02;;
40871;SDS011;26591;43.264;26.940;2022-08-19T04:33:51;29.60;;;13.38;;
40871;SDS011;26591;43.264;26.940;2022-08-19T04:36:25;26.45;;;13.45;;
40871;SDS011;26591;43.264;26.940;2022-08-19T04:38:56;30.75;;;12.38;;
40871;SDS011;26591;43.264;26.940;2022-08-19T04:41:24;34.83;;;12.93;;
40871;SDS011;26591;43.264;26.940;2022-08-19T04:44:08;30.85;;;12.80;;
40871;SDS011;26591;43.264;26.940;2022-08-19T04:46:34;22.10;;;12.23;;
40871;SDS011;26591;43.264;26.940;2022-08-19T04:49:00;21.25;;;11.98;;
40871;SDS011;26591;43.264;26.940;2022-08-19T04:51:27;16.63;;;11.60;;
40871;SDS011;26591;43.264;26.940;2022-08-19T04:53:56;27.02;;;11.85;;
40871;SDS011;26591;43.264;26.940;2022-08-19T04:56:22;22.05;;;11.38;;
40871;SDS011;26591;43.264;26.940;2022-08-19T04:58:51;25.52;;;12.23;;
40871;SDS011;26591;43.264;26.940;2022-08-19T05:01:18;18.73;;;11.85;;
40871;SDS011;26591;43.264;26.940;2022-08-19T05:03:45;20.80;;;11.43;;
40871;SDS011;26591;43.264;26.940;2022-08-19T05:06:12;16.90;;;10.93;;
40871;SDS011;26591;43.264;26.940;2022-08-19T05:08:40;25.65;;;11.05;;
40871;SDS011;26591;43.264;26.940;2022-08-19T05:11:09;20.98;;;11.20;;
40871;SDS011;26591;43.264;26.940;2022-08-19T05:13:39;22.38;;;11.57;;
40871;SDS011;26591;43.264;26.940;2022-08-19T05:16:06;18.23;;;11.00;;
40871;SDS011;26591;43.264;26.940;2022-08-19T05:18:31;24.17;;;11.48;;
40871;SDS011;26591;43.264;26.940;2022-08-19T05:21:16;21.35;;;11.15;;
40871;SDS011;26591;43.264;26.940;2022-08-19T05:24:02;23.83;;;11.52;;
40871;SDS011;26591;43.264;26.940;2022-08-19T05:26:37;25.80;;;12.02;;
40871;SDS011;26591;43.264;26.940;2022-08-19T05:29:04;20.30;;;11.77;;
40871;SDS011;26591;43.264;26.940;2022-08-19T05:31:30;16.58;;;10.55;;
40871;SDS011;26591;43.264;26.940;2022-08-19T05:33:56;20.92;;;14.23;;
40871;SDS011;26591;43.264;26.940;2022-08-19T05:36:24;25.85;;;15.30;;
40871;SDS011;26591;43.264;26.940;2022-08-19T05:38:54;23.45;;;12.13;;
40871;SDS011;26591;43.264;26.940;2022-08-19T05:41:21;24.40;;;11.55;;
40871;SDS011;26591;43.264;26.940;2022-08-19T05:43:55;20.27;;;11.25;;
40871;SDS011;26591;43.264;26.940;2022-08-19T05:46:26;20.15;;;9.77;;
40871;SDS011;26591;43.264;26.940;2022-08-19T05:48:52;20.90;;;8.05;;
40871;SDS011;26591;43.264;26.940;2022-08-19T05:51:21;15.63;;;8.65;;
40871;SDS011;26591;43.264;26.940;2022-08-19T05:53:47;20.98;;;8.48;;
40871;SDS011;26591;43.264;26.940;2022-08-19T05:56:14;12.15;;;6.00;;
40871;SDS011;26591;43.264;26.940;2022-08-19T05:58:41;16.73;;;6.95;;
40871;SDS011;26591;43.264;26.940;2022-08-19T06:01:10;10.00;;;5.78;;
40871;SDS011;26591;43.264;26.940;2022-08-19T06:03:41;10.52;;;6.05;;
40871;SDS011;26591;43.264;26.940;2022-08-19T06:06:08;9.50;;;5.72;;
40871;SDS011;26591;43.264;26.940;2022-08-19T06:08:36;9.95;;;5.35;;
40871;SDS011;26591;43.264;26.940;2022-08-19T06:11:13;12.70;;;5.32;;
40871;SDS011;26591;43.264;26.940;2022-08-19T06:13:40;8.98;;;5.60;;
40871;SDS011;26591;43.264;26.940;2022-08-19T06:16:06;12.80;;;5.55;;
40871;SDS011;26591;43.264;26.940;2022-08-19T06:18:31;10.13;;;5.70;;
40871;SDS011;26591;43.264;26.940;2022-08-19T06:20:58;8.88;;;5.43;;
40871;SDS011;26591;43.264;26.940;2022-08-19T06:23:23;13.50;;;5.18;;
40871;SDS011;26591;43.264;26.940;2022-08-19T06:25:49;12.60;;;5.13;;
40871;SDS011;26591;43.264;26.940;2022-08-19T06:28:14;14.02;;;6.03;;
40871;SDS011;26591;43.264;26.940;2022-08-19T06:30:40;10.05;;;5.28;;
40871;SDS011;26591;43.264;26.940;2022-08-19T06:33:06;8.98;;;4.88;;
40871;SDS011;26591;43.264;26.940;2022-08-19T06:35:32;14.30;;;5.85;;
40871;SDS011;26591;43.264;26.940;2022-08-19T06:37:57;16.58;;;5.47;;
40871;SDS011;26591;43.264;26.940;2022-08-19T06:40:24;8.15;;;5.40;;
40871;SDS011;26591;43.264;26.940;2022-08-19T06:42:52;11.95;;;5.32;;
40871;SDS011;26591;43.264;26.940;2022-08-19T06:45:18;12.82;;;5.00;;
40871;SDS011;26591;43.264;26.940;2022-08-19T06:47:45;9.50;;;5.28;;
40871;SDS011;26591;43.264;26.940;2022-08-19T06:50:13;14.90;;;5.07;;
40871;SDS011;26591;43.264;26.940;2022-08-19T06:52:39;9.52;;;5.22;;
40871;SDS011;26591;43.264;26.940;2022-08-19T06:55:05;11.75;;;5.25;;
40871;SDS011;26591;43.264;26.940;2022-08-19T06:57:31;13.68;;;5.38;;
40871;SDS011;26591;43.264;26.940;2022-08-19T06:59:57;11.52;;;5.30;;
40871;SDS011;26591;43.264;26.940;2022-08-19T07:02:25;14.05;;;6.05;;
40871;SDS011;26591;43.264;26.940;2022-08-19T07:04:51;9.10;;;5.45;;
40871;SDS011;26591;43.264;26.940;2022-08-19T07:07:17;14.52;;;4.93;;
40871;SDS011;26591;43.264;26.940;2022-08-19T07:09:45;14.43;;;5.38;;
40871;SDS011;26591;43.264;26.940;2022-08-19T07:12:11;8.75;;;5.18;;
40871;SDS011;26591;43.264;26.940;2022-08-19T07:14:40;8.65;;;5.88;;
40871;SDS011;26591;43.264;26.940;2022-08-19T07:17:08;8.43;;;5.13;;
40871;SDS011;26591;43.264;26.940;2022-08-19T07:19:36;10.10;;;4.82;;
40871;SDS011;26591;43.264;26.940;2022-08-19T07:22:03;15.02;;;5.68;;
40871;SDS011;26591;43.264;26.940;2022-08-19T07:24:31;10.35;;;5.07;;
40871;SDS011;26591;43.264;26.940;2022-08-19T07:26:58;12.55;;;4.72;;
40871;SDS011;26591;43.264;26.940;2022-08-19T07:29:28;12.38;;;5.05;;
40871;SDS011;26591;43.264;26.940;2022-08-19T07:31:56;10.35;;;5.20;;
40871;SDS011;26591;43.264;26.940;2022-08-19T07:34:23;8.60;;;5.38;;
40871;SDS011;26591;43.264;26.940;2022-08-19T07:36:50;10.23;;;4.82;;
40871;SDS011;26591;43.264;26.940;2022-08-19T07:39:20;15.85;;;5.10;;
40871;SDS011;26591;43.264;26.940;2022-08-19T07:41:55;12.13;;;5.00;;
40871;SDS011;26591;43.264;26.940;2022-08-19T07:44:22;12.20;;;5.35;;
40871;SDS011;26591;43.264;26.940;2022-08-19T07:46:49;10.95;;;4.68;;
40871;SDS011;26591;43.264;26.940;2022-08-19T07:49:19;9.73;;;5.20;;
40871;SDS011;26591;43.264;26.940;2022-08-19T07:51:50;11.52;;;5.05;;
40871;SDS011;26591;43.264;26.940;2022-08-19T07:54:30;9.98;;;5.00;;
40871;SDS011;26591;43.264;26.940;2022-08-19T07:56:59;11.65;;;4.75;;
40871;SDS011;26591;43.264;26.940;2022-08-19T07:59:24;13.43;;;5.57;;
40871;SDS011;26591;43.264;26.940;2022-08-19T08:01:50;12.52;;;4.93;;
40871;SDS011;26591;43.264;26.940;2022-08-19T08:04:17;17.10;;;6.07;;
40871;SDS011;26591;43.264;26.940;2022-08-19T08:07:03;12.88;;;5.60;;
40871;SDS011;26591;43.264;26.940;2022-08-19T08:09:48;12.65;;;5.03;;
40871;SDS011;26591;43.264;26.940;2022-08-19T08:12:18;14.82;;;5.25;;
40871;SDS011;26591;43.264;26.940;2022-08-19T08:14:50;14.15;;;4.82;;
40871;SDS011;26591;43.264;26.940;2022-08-19T08:17:19;12.48;;;5.20;;
40871;SDS011;26591;43.264;26.940;2022-08-19T08:19:46;8.70;;;5.28;;
40871;SDS011;26591;43.264;26.940;2022-08-19T08:22:14;16.92;;;5.55;;
40871;SDS011;26591;43.264;26.940;2022-08-19T08:25:09;14.93;;;5.63;;
40871;SDS011;26591;43.264;26.940;2022-08-19T08:27:41;18.80;;;5.10;;
40871;SDS011;26591;43.264;26.940;2022-08-19T08:30:09;15.32;;;5.13;;
40871;SDS011;26591;43.264;26.940;2022-08-19T08:32:45;15.05;;;5.00;;
40871;SDS011;26591;43.264;26.940;2022-08-19T08:35:13;11.55;;;5.53;;
40871;SDS011;26591;43.264;26.940;2022-08-19T08:37:41;16.35;;;4.75;;
40871;SDS011;26591;43.264;26.940;2022-08-19T08:43:02;13.13;;;4.72;;
40871;SDS011;26591;43.264;26.940;2022-08-19T08:45:36;11.13;;;5.55;;
40871;SDS011;26591;43.264;26.940;2022-08-19T08:48:52;12.00;;;4.93;;
40871;SDS011;26591;43.264;26.940;2022-08-19T08:50:57;11.52;;;4.47;;
40871;SDS011;26591;43.264;26.940;2022-08-19T08:53:26;11.43;;;4.65;;
40871;SDS011;26591;43.264;26.940;2022-08-19T08:55:52;17.40;;;5.15;;
40871;SDS011;26591;43.264;26.940;2022-08-19T08:58:25;11.45;;;4.90;;
40871;SDS011;26591;43.264;26.940;2022-08-19T09:00:56;11.18;;;4.70;;
40871;SDS011;26591;43.264;26.940;2022-08-19T09:03:23;8.05;;;4.10;;
40871;SDS011;26591;43.264;26.940;2022-08-19T09:11:04;11.70;;;5.18;;
40871;SDS011;26591;43.264;26.940;2022-08-19T09:16:43;12.25;;;5.53;;
40871;SDS011;26591;43.264;26.940;2022-08-19T09:19:09;12.90;;;5.35;;
40871;SDS011;26591;43.264;26.940;2022-08-19T09:21:35;15.75;;;5.20;;
40871;SDS011;26591;43.264;26.940;2022-08-19T09:24:02;16.10;;;5.50;;
40871;SDS011;26591;43.264;26.940;2022-08-19T09:26:28;16.67;;;5.15;;
40871;SDS011;26591;43.264;26.940;2022-08-19T09:28:55;9.63;;;5.10;;
40871;SDS011;26591;43.264;26.940;2022-08-19T09:31:24;14.93;;;5.10;;
40871;SDS011;26591;43.264;26.940;2022-08-19T09:33:52;13.95;;;5.10;;
40871;SDS011;26591;43.264;26.940;2022-08-19T09:36:22;11.82;;;5.07;;
40871;SDS011;26591;43.264;26.940;2022-08-19T09:38:50;15.93;;;5.32;;
40871;SDS011;26591;43.264;26.940;2022-08-19T09:41:20;12.65;;;5.00;;
40871;SDS011;26591;43.264;26.940;2022-08-19T09:43:49;12.05;;;5.03;;
40871;SDS011;26591;43.264;26.940;2022-08-19T09:46:21;9.80;;;5.25;;
40871;SDS011;26591;43.264;26.940;2022-08-19T09:48:49;21.00;;;5.50;;
40871;SDS011;26591;43.264;26.940;2022-08-19T09:51:17;10.50;;;4.68;;
40871;SDS011;26591;43.264;26.940;2022-08-19T09:53:46;10.70;;;4.90;;
40871;SDS011;26591;43.264;26.940;2022-08-19T09:58:41;13.07;;;4.32;;
40871;SDS011;26591;43.264;26.940;2022-08-19T10:01:07;18.33;;;4.85;;
40871;SDS011;26591;43.264;26.940;2022-08-19T10:03:33;8.25;;;4.53;;
40871;SDS011;26591;43.264;26.940;2022-08-19T10:06:01;11.82;;;4.70;;
40871;SDS011;26591;43.264;26.940;2022-08-19T10:08:29;11.85;;;4.82;;
40871;SDS011;26591;43.264;26.940;2022-08-19T10:10:58;13.95;;;4.60;;
40871;SDS011;26591;43.264;26.940;2022-08-19T10:13:25;8.57;;;4.35;;
40871;SDS011;26591;43.264;26.940;2022-08-19T10:15:53;8.57;;;4.35;;
40871;SDS011;26591;43.264;26.940;2022-08-19T10:18:21;14.82;;;5.20;;
40871;SDS011;26591;43.264;26.940;2022-08-19T10:20:48;9.43;;;4.63;;
40871;SDS011;26591;43.264;26.940;2022-08-19T10:23:16;12.98;;;4.40;;
40871;SDS011;26591;43.264;26.940;2022-08-19T10:25:42;6.80;;;4.60;;
40871;SDS011;26591;43.264;26.940;2022-08-19T10:28:08;12.48;;;4.53;;
40871;SDS011;26591;43.264;26.940;2022-08-19T10:30:37;10.05;;;3.83;;
40871;SDS011;26591;43.264;26.940;2022-08-19T10:33:04;10.82;;;5.10;;
40871;SDS011;26591;43.264;26.940;2022-08-19T10:35:31;9.27;;;4.95;;
40871;SDS011;26591;43.264;26.940;2022-08-19T10:37:57;10.57;;;4.30;;
40871;SDS011;26591;43.264;26.940;2022-08-19T10:40:24;13.32;;;4.40;;
40871;SDS011;26591;43.264;26.940;2022-08-19T10:42:52;9.23;;;4.30;;
40871;SDS011;26591;43.264;26.940;2022-08-19T10:45:19;9.43;;;4.80;;
40871;SDS011;26591;43.264;26.940;2022-08-19T10:47:47;14.07;;;4.20;;
40871;SDS011;26591;43.264;26.940;2022-08-19T10:50:13;10.07;;;4.03;;
40871;SDS011;26591;43.264;26.940;2022-08-19T10:52:56;11.02;;;4.20;;
40871;SDS011;26591;43.264;26.940;2022-08-19T10:55:23;8.25;;;4.07;;
40871;SDS011;26591;43.264;26.940;2022-08-19T10:58:14;10.52;;;4.20;;
40871;SDS011;26591;43.264;26.940;2022-08-19T11:00:42;12.95;;;4.25;;
40871;SDS011;26591;43.264;26.940;2022-08-19T11:03:15;11.15;;;4.18;;
40871;SDS011;26591;43.264;26.940;2022-08-19T11:05:41;11.50;;;3.95;;
40871;SDS011;26591;43.264;26.940;2022-08-19T11:08:07;13.57;;;4.60;;
40871;SDS011;26591;43.264;26.940;2022-08-19T11:10:36;10.88;;;4.07;;
40871;SDS011;26591;43.264;26.940;2022-08-19T11:13:02;6.55;;;4.10;;
40871;SDS011;26591;43.264;26.940;2022-08-19T11:15:28;11.77;;;4.38;;
40871;SDS011;26591;43.264;26.940;2022-08-19T11:17:54;6.80;;;3.90;;
40871;SDS011;26591;43.264;26.940;2022-08-19T11:20:20;8.75;;;4.15;;
40871;SDS011;26591;43.264;26.940;2022-08-19T11:22:48;8.80;;;3.92;;
40871;SDS011;26591;43.264;26.940;2022-08-19T11:27:45;17.70;;;4.47;;
40871;SDS011;26591;43.264;26.940;2022-08-19T11:30:12;14.70;;;5.20;;
40871;SDS011;26591;43.264;26.940;2022-08-19T11:32:39;9.05;;;3.80;;
40871;SDS011;26591;43.264;26.940;2022-08-19T11:35:07;20.90;;;4.53;;
40871;SDS011;26591;43.264;26.940;2022-08-19T11:37:33;8.45;;;3.40;;
40871;SDS011;26591;43.264;26.940;2022-08-19T11:40:02;6.95;;;4.10;;
40871;SDS011;26591;43.264;26.940;2022-08-19T11:42:29;8.23;;;3.75;;
40871;SDS011;26591;43.264;26.940;2022-08-19T11:45:13;11.57;;;4.30;;
40871;SDS011;26591;43.264;26.940;2022-08-19T11:47:39;6.85;;;3.80;;
40871;SDS011;26591;43.264;26.940;2022-08-19T11:50:05;14.77;;;4.38;;
40871;SDS011;26591;43.264;26.940;2022-08-19T11:52:31;14.68;;;4.38;;
40871;SDS011;26591;43.264;26.940;2022-08-19T11:54:56;12.88;;;4.07;;
40871;SDS011;26591;43.264;26.940;2022-08-19T11:57:22;6.72;;;3.42;;
40871;SDS011;26591;43.264;26.940;2022-08-19T11:59:48;12.95;;;4.15;;
40871;SDS011;26591;43.264;26.940;2022-08-19T12:02:17;11.15;;;3.88;;
40871;SDS011;26591;43.264;26.940;2022-08-19T12:04:44;8.82;;;3.97;;
40871;SDS011;26591;43.264;26.940;2022-08-19T12:07:09;9.10;;;4.15;;
40871;SDS011;26591;43.264;26.940;2022-08-19T12:09:35;14.05;;;4.70;;
40871;SDS011;26591;43.264;26.940;2022-08-19T12:12:01;14.15;;;4.03;;
40871;SDS011;26591;43.264;26.940;2022-08-19T12:14:27;14.30;;;4.50;;
40871;SDS011;26591;43.264;26.940;2022-08-19T12:16:55;12.32;;;4.22;;
40871;SDS011;26591;43.264;26.940;2022-08-19T12:19:21;13.85;;;3.95;;
40871;SDS011;26591;43.264;26.940;2022-08-19T12:21:47;17.02;;;4.72;;
40871;SDS011;26591;43.264;26.940;2022-08-19T12:24:12;12.98;;;3.88;;
40871;SDS011;26591;43.264;26.940;2022-08-19T12:26:38;16.20;;;4.40;;
40871;SDS011;26591;43.264;26.940;2022-08-19T12:29:04;8.88;;;4.35;;
40871;SDS011;26591;43.264;26.940;2022-08-19T12:31:30;17.58;;;4.35;;
40871;SDS011;26591;43.264;26.940;2022-08-19T12:33:55;8.88;;;3.60;;
40871;SDS011;26591;43.264;26.940;2022-08-19T12:36:21;9.77;;;4.30;;
40871;SDS011;26591;43.264;26.940;2022-08-19T12:38:48;7.40;;;3.28;;
40871;SDS011;26591;43.264;26.940;2022-08-19T12:41:14;13.95;;;3.90;;
40871;SDS011;26591;43.264;26.940;2022-08-19T12:43:42;13.55;;;3.80;;
40871;SDS011;26591;43.264;26.940;2022-08-19T12:46:09;13.18;;;3.45;;
40871;SDS011;26591;43.264;26.940;2022-08-19T12:48:35;10.82;;;3.70;;
40871;SDS011;26591;43.264;26.940;2022-08-19T12:51:05;10.13;;;3.75;;
40871;SDS011;26591;43.264;26.940;2022-08-19T12:53:33;9.90;;;3.40;;
40871;SDS011;26591;43.264;26.940;2022-08-19T12:55:58;8.20;;;3.40;;
40871;SDS011;26591;43.264;26.940;2022-08-19T12:58:25;10.48;;;3.67;;
40871;SDS011;26591;43.264;26.940;2022-08-19T13:00:51;7.13;;;3.50;;
40871;SDS011;26591;43.264;26.940;2022-08-19T13:03:17;13.05;;;4.07;;
40871;SDS011;26591;43.264;26.940;2022-08-19T13:05:43;14.00;;;4.18;;
40871;SDS011;26591;43.264;26.940;2022-08-19T13:08:08;12.07;;;3.90;;
40871;SDS011;26591;43.264;26.940;2022-08-19T13:10:34;13.00;;;4.15;;
40871;SDS011;26591;43.264;26.940;2022-08-19T13:13:01;16.65;;;3.35;;
40871;SDS011;26591;43.264;26.940;2022-08-19T13:17:57;7.45;;;3.60;;
40871;SDS011;26591;43.264;26.940;2022-08-19T13:20:23;8.68;;;4.00;;
40871;SDS011;26591;43.264;26.940;2022-08-19T13:22:49;13.48;;;3.60;;
40871;SDS011;26591;43.264;26.940;2022-08-19T13:25:15;10.40;;;3.67;;
40871;SDS011;26591;43.264;26.940;2022-08-19T13:27:44;11.52;;;3.10;;
40871;SDS011;26591;43.264;26.940;2022-08-19T13:30:10;13.68;;;3.70;;
40871;SDS011;26591;43.264;26.940;2022-08-19T13:32:56;14.43;;;3.92;;
40871;SDS011;26591;43.264;26.940;2022-08-19T13:35:45;12.30;;;4.38;;
40871;SDS011;26591;43.264;26.940;2022-08-19T13:38:17;11.82;;;3.60;;
40871;SDS011;26591;43.264;26.940;2022-08-19T13:40:45;11.95;;;3.22;;
40871;SDS011;26591;43.264;26.940;2022-08-19T13:43:12;11.85;;;3.83;;
40871;SDS011;26591;43.264;26.940;2022-08-19T13:45:39;11.60;;;4.15;;
40871;SDS011;26591;43.264;26.940;2022-08-19T13:48:05;13.10;;;3.83;;
40871;SDS011;26591;43.264;26.940;2022-08-19T13:50:34;7.30;;;3.60;;
40871;SDS011;26591;43.264;26.940;2022-08-19T13:53:05;10.07;;;3.92;;
40871;SDS011;26591;43.264;26.940;2022-08-19T13:55:31;16.08;;;4.38;;
40871;SDS011;26591;43.264;26.940;2022-08-19T13:57:59;18.42;;;3.83;;
40871;SDS011;26591;43.264;26.940;2022-08-19T14:00:27;11.15;;;3.78;;
40871;SDS011;26591;43.264;26.940;2022-08-19T14:02:55;11.30;;;3.70;;
40871;SDS011;26591;43.264;26.940;2022-08-19T14:05:22;10.57;;;3.78;;
40871;SDS011;26591;43.264;26.940;2022-08-19T14:07:50;16.80;;;3.97;;
40871;SDS011;26591;43.264;26.940;2022-08-19T14:10:16;8.68;;;3.35;;
40871;SDS011;26591;43.264;26.940;2022-08-19T14:12:43;9.98;;;3.97;;
40871;SDS011;26591;43.264;26.940;2022-08-19T14:15:10;9.95;;;4.22;;
40871;SDS011;26591;43.264;26.940;2022-08-19T14:17:38;14.55;;;4.55;;
40871;SDS011;26591;43.264;26.940;2022-08-19T14:20:05;15.70;;;4.18;;
40871;SDS011;26591;43.264;26.940;2022-08-19T14:22:38;8.75;;;3.70;;
40871;SDS011;26591;43.264;26.940;2022-08-19T14:25:06;14.60;;;4.18;;
40871;SDS011;26591;43.264;26.940;2022-08-19T14:27:34;11.23;;;4.20;;
40871;SDS011;26591;43.264;26.940;2022-08-19T14:30:01;20.13;;;3.72;;
40871;SDS011;26591;43.264;26.940;2022-08-19T14:32:27;18.10;;;3.92;;
40871;SDS011;26591;43.264;26.940;2022-08-19T14:34:53;9.15;;;4.30;;
40871;SDS011;26591;43.264;26.940;2022-08-19T14:37:19;9.13;;;3.50;;
40871;SDS011;26591;43.264;26.940;2022-08-19T14:39:47;17.73;;;4.80;;
40871;SDS011;26591;43.264;26.940;2022-08-19T14:42:13;16.77;;;4.80;;
40871;SDS011;26591;43.264;26.940;2022-08-19T14:44:40;12.18;;;3.78;;
40871;SDS011;26591;43.264;26.940;2022-08-19T14:47:06;13.90;;;4.10;;